Time,TemperatureF,DewpointF,PressureIn,WindDirection,WindDirectionDegrees,WindSpeedMPH,WindSpeedGustMPH,Humidity,HourlyPrecipIn,Conditions,Clouds,dailyrainin,SoftwareType,DateUTC
2013-05-03 00:15:00,61.6,59.9,30.09,North,354,1.0,2.0,94,0.00,,---,0.00,VWS V14.01,2013-05-03 04:15:00,
2013-05-03 00:30:00,61.5,59.5,30.09,ENE,77,2.0,3.0,93,0.00,,---,0.00,VWS V14.01,2013-05-03 04:30:00,
2013-05-03 00:45:00,61.5,59.5,30.09,NNW,335,1.0,3.0,93,0.00,,---,0.00,VWS V14.01,2013-05-03 04:45:00,
2013-05-03 01:00:00,61.3,59.3,30.09,NE,56,0.0,3.0,93,0.00,,---,0.00,VWS V14.01,2013-05-03 05:00:00,
2013-05-03 01:15:00,61.2,59.2,30.09,ENE,65,1.0,3.0,93,0.00,,---,0.00,VWS V14.01,2013-05-03 05:15:00,
2013-05-03 01:30:00,61.2,58.9,30.08,NE,41,1.0,2.0,92,0.00,,---,0.00,VWS V14.01,2013-05-03 05:30:00,
2013-05-03 01:45:00,61.3,59.0,30.08,ENE,59,0.0,1.0,92,0.00,,---,0.00,VWS V14.01,2013-05-03 05:45:00,
2013-05-03 02:00:00,61.3,59.0,30.07,ENE,64,0.0,2.0,92,0.00,,---,0.00,VWS V14.01,2013-05-03 06:00:00,
2013-05-03 02:15:00,61.2,58.9,30.07,East,81,0.0,2.0,92,0.00,,---,0.00,VWS V14.01,2013-05-03 06:15:00,
2013-05-03 02:30:00,61.1,58.8,30.06,North,7,2.0,2.0,92,0.00,,---,0.00,VWS V14.01,2013-05-03 06:30:00,
2013-05-03 02:45:00,61.0,58.4,30.06,ENE,58,0.0,2.0,91,0.00,,---,0.00,VWS V14.01,2013-05-03 06:45:00,
2013-05-03 03:00:00,60.9,58.3,30.05,NE,45,1.0,2.0,91,0.00,,---,0.00,VWS V14.01,2013-05-03 07:00:00,
2013-05-03 03:15:00,60.8,58.2,30.05,NE,50,0.0,2.0,91,0.00,,---,0.00,VWS V14.01,2013-05-03 07:15:00,
2013-05-03 03:30:00,60.7,57.8,30.04,ENE,73,2.0,3.0,90,0.00,,---,0.00,VWS V14.01,2013-05-03 07:30:00,
2013-05-03 03:45:00,60.5,57.2,30.04,ENE,63,1.0,4.0,89,0.00,,---,0.00,VWS V14.01,2013-05-03 07:45:00,
2013-05-03 04:00:00,60.3,57.0,30.04,WNW,294,1.0,5.0,89,0.00,,---,0.00,VWS V14.01,2013-05-03 08:00:00,
2013-05-03 04:15:00,60.0,56.4,30.03,NNE,30,0.0,3.0,88,0.00,,---,0.00,VWS V14.01,2013-05-03 08:15:00,
2013-05-03 04:31:00,59.6,56.0,30.03,NE,49,0.0,3.0,88,0.00,,---,0.00,VWS V14.01,2013-05-03 08:31:00,
2013-05-03 04:45:00,59.2,56.0,30.03,East,79,0.0,4.0,89,0.00,,---,0.00,VWS V14.01,2013-05-03 08:45:00,
2013-05-03 05:00:00,58.7,55.5,30.04,NNE,30,1.0,2.0,89,0.00,,---,0.00,VWS V14.01,2013-05-03 09:00:00,
2013-05-03 05:15:00,58.2,55.3,30.04,ENE,77,1.0,3.0,90,0.00,,---,0.00,VWS V14.01,2013-05-03 09:15:00,
2013-05-03 05:30:00,57.9,55.0,30.04,ENE,75,0.0,2.0,90,0.00,,---,0.00,VWS V14.01,2013-05-03 09:30:00,
2013-05-03 05:45:00,57.7,54.8,30.04,NNW,336,0.0,3.0,90,0.00,,---,0.00,VWS V14.01,2013-05-03 09:45:00,
2013-05-03 06:00:00,57.4,54.8,30.04,NW,324,0.0,2.0,91,0.00,,---,0.00,VWS V14.01,2013-05-03 10:00:00,
2013-05-03 06:15:00,57.2,54.6,30.05,West,264,0.0,2.0,91,0.00,,---,0.00,VWS V14.01,2013-05-03 10:15:00,
2013-05-03 06:30:00,57.1,54.5,30.05,NW,322,0.0,2.0,91,0.00,,---,0.00,VWS V14.01,2013-05-03 10:30:00,
2013-05-03 06:45:00,57.0,54.4,30.05,North,5,0.0,2.0,91,0.00,,---,0.00,VWS V14.01,2013-05-03 10:45:00,
2013-05-03 07:00:00,56.9,54.3,30.06,NNW,344,1.0,2.0,91,0.00,,---,0.00,VWS V14.01,2013-05-03 11:00:00,
2013-05-03 07:15:00,56.9,54.6,30.05,NNE,14,1.0,2.0,92,0.00,,---,0.00,VWS V14.01,2013-05-03 11:15:00,
2013-05-03 07:30:00,56.9,54.6,30.06,East,82,1.0,2.0,92,0.00,,---,0.00,VWS V14.01,2013-05-03 11:30:00,
2013-05-03 07:45:00,57.0,54.7,30.06,SW,235,1.0,3.0,92,0.00,,---,0.00,VWS V14.01,2013-05-03 11:45:00,
2013-05-03 08:00:00,57.3,54.7,30.06,North,8,0.0,3.0,91,0.00,,---,0.00,VWS V14.01,2013-05-03 12:00:00,
2013-05-03 08:15:00,57.5,54.9,30.06,ENE,68,1.0,3.0,91,0.00,,---,0.00,VWS V14.01,2013-05-03 12:15:00,
2013-05-03 08:30:00,57.6,55.0,30.06,North,355,1.0,3.0,91,0.00,,---,0.00,VWS V14.01,2013-05-03 12:30:00,
2013-05-03 08:45:00,57.4,55.1,30.06,ENE,61,0.0,2.0,92,0.00,,---,0.00,VWS V14.01,2013-05-03 12:45:00,
2013-05-03 09:00:00,57.2,55.2,30.07,West,264,0.0,2.0,93,0.01,,---,0.01,VWS V14.01,2013-05-03 13:00:00,
2013-05-03 09:30:00,56.9,55.2,30.07,NW,315,0.0,1.0,94,0.02,,---,0.02,VWS V14.01,2013-05-03 13:30:00,
2013-05-03 09:45:00,57.0,55.6,30.07,NNW,342,0.0,1.0,95,0.03,,---,0.03,VWS V14.01,2013-05-03 13:45:00,
2013-05-03 10:00:00,57.0,55.6,30.07,North,349,0.0,2.0,95,0.04,,---,0.04,VWS V14.01,2013-05-03 14:00:00,
2013-05-03 10:15:00,57.1,55.7,30.07,NE,56,0.0,2.0,95,0.04,,---,0.05,VWS V14.01,2013-05-03 14:15:00,
2013-05-03 10:30:00,57.1,55.7,30.07,NNW,342,1.0,3.0,95,0.05,,---,0.07,VWS V14.01,2013-05-03 14:30:00,
2013-05-03 10:45:00,57.1,56.0,30.07,NNW,342,0.0,2.0,96,0.05,,---,0.07,VWS V14.01,2013-05-03 14:45:00,
2013-05-03 11:00:00,57.1,56.0,30.08,ESE,102,1.0,3.0,96,0.04,,---,0.07,VWS V14.01,2013-05-03 15:00:00,
2013-05-03 11:15:00,57.2,56.1,30.08,NNW,328,1.0,3.0,96,0.04,,---,0.08,VWS V14.01,2013-05-03 15:15:00,
2013-05-03 11:30:00,57.4,56.3,30.07,NNE,12,0.0,3.0,96,0.04,,---,0.09,VWS V14.01,2013-05-03 15:30:00,
2013-05-03 11:45:00,58.0,56.9,30.06,NE,39,1.0,4.0,96,0.02,,---,0.09,VWS V14.01,2013-05-03 15:45:00,
2013-05-03 12:00:00,58.5,57.4,30.07,East,92,0.0,4.0,96,0.02,,---,0.09,VWS V14.01,2013-05-03 16:00:00,
2013-05-03 12:15:00,58.8,57.7,30.07,ENE,72,1.0,3.0,96,0.02,,---,0.09,VWS V14.01,2013-05-03 16:15:00,
2013-05-03 12:30:00,59.3,58.2,30.07,NNE,20,1.0,3.0,96,0.01,,---,0.09,VWS V14.01,2013-05-03 16:30:00,
2013-05-03 12:45:00,59.8,58.4,30.06,East,79,2.0,3.0,95,0.00,,---,0.09,VWS V14.01,2013-05-03 16:45:00,
2013-05-03 13:00:00,59.8,58.1,30.05,East,88,0.0,4.0,94,0.00,,---,0.09,VWS V14.01,2013-05-03 17:00:00,
2013-05-03 13:15:00,60.8,59.1,30.05,NE,54,0.0,2.0,94,0.00,,---,0.09,VWS V14.01,2013-05-03 17:15:00,
2013-05-03 13:30:00,61.8,59.5,30.04,NE,45,1.0,2.0,92,0.00,,---,0.09,VWS V14.01,2013-05-03 17:30:00,
2013-05-03 13:45:00,62.6,59.9,30.04,NE,51,0.0,5.0,91,0.00,,---,0.09,VWS V14.01,2013-05-03 17:45:00,
2013-05-03 14:00:00,62.4,59.4,30.04,NNE,23,0.0,2.0,90,0.00,,---,0.09,VWS V14.01,2013-05-03 18:00:00,
2013-05-03 14:15:00,62.8,59.8,30.04,SW,233,1.0,3.0,90,0.00,,---,0.09,VWS V14.01,2013-05-03 18:15:00,
2013-05-03 14:30:00,62.8,59.8,30.03,ESE,110,0.0,2.0,90,0.00,,---,0.09,VWS V14.01,2013-05-03 18:30:00,
2013-05-03 14:45:00,62.4,59.4,30.04,ENE,73,0.0,2.0,90,0.00,,---,0.09,VWS V14.01,2013-05-03 18:45:00,
2013-05-03 15:00:00,62.7,60.0,30.03,ENE,74,0.0,2.0,91,0.00,,---,0.09,VWS V14.01,2013-05-03 19:00:00,
2013-05-03 15:15:00,63.3,60.3,30.02,ENE,58,0.0,2.0,90,0.00,,---,0.09,VWS V14.01,2013-05-03 19:15:00,
2013-05-03 15:30:00,63.6,60.6,30.02,ENE,61,0.0,2.0,90,0.00,,---,0.09,VWS V14.01,2013-05-03 19:30:00,
2013-05-03 15:45:00,63.9,60.6,30.01,ESE,110,0.0,2.0,89,0.00,,---,0.09,VWS V14.01,2013-05-03 19:45:00,
2013-05-03 16:00:00,64.6,60.7,30.00,East,94,0.0,3.0,87,0.00,,---,0.09,VWS V14.01,2013-05-03 20:00:00,
2013-05-03 16:15:00,65.1,60.2,30.00,ESE,117,2.0,4.0,84,0.00,,---,0.09,VWS V14.01,2013-05-03 20:15:00,
2013-05-03 16:30:00,65.1,60.2,30.00,SE,135,1.0,3.0,84,0.00,,---,0.09,VWS V14.01,2013-05-03 20:30:00,
2013-05-03 16:45:00,64.1,60.2,30.00,East,97,0.0,2.0,87,0.00,,---,0.09,VWS V14.01,2013-05-03 20:45:00,
2013-05-03 17:00:00,63.9,59.3,30.00,ESE,120,2.0,6.0,85,0.00,,---,0.09,VWS V14.01,2013-05-03 21:00:00,
2013-05-03 17:15:00,64.3,59.4,30.00,ESE,117,0.0,4.0,84,0.00,,---,0.09,VWS V14.01,2013-05-03 21:15:00,
2013-05-03 17:30:00,64.1,59.5,30.00,ESE,123,1.0,5.0,85,0.00,,---,0.09,VWS V14.01,2013-05-03 21:30:00,
2013-05-03 17:45:00,63.9,58.3,30.00,East,85,1.0,6.0,82,0.00,,---,0.09,VWS V14.01,2013-05-03 21:45:00,
2013-05-03 18:00:00,63.4,58.5,30.00,ENE,58,1.0,5.0,84,0.00,,---,0.09,VWS V14.01,2013-05-03 22:00:00,
2013-05-03 18:15:00,63.2,58.3,30.00,SE,127,2.0,4.0,84,0.00,,---,0.09,VWS V14.01,2013-05-03 22:15:00,
2013-05-03 18:30:00,63.0,58.4,30.00,ESE,104,1.0,4.0,85,0.00,,---,0.09,VWS V14.01,2013-05-03 22:30:00,
2013-05-03 18:45:00,62.8,58.6,30.00,ESE,106,0.0,3.0,86,0.00,,---,0.09,VWS V14.01,2013-05-03 22:45:00,
2013-05-03 19:00:00,62.2,58.9,30.00,ESE,105,0.0,4.0,89,0.00,,---,0.09,VWS V14.01,2013-05-03 23:00:00,
2013-05-03 19:15:00,61.4,58.1,29.99,NE,46,0.0,4.0,89,0.00,,---,0.09,VWS V14.01,2013-05-03 23:15:00,
2013-05-03 19:30:00,61.1,58.2,29.99,East,84,2.0,3.0,90,0.00,,---,0.09,VWS V14.01,2013-05-03 23:30:00,
2013-05-03 19:45:00,60.9,57.6,29.99,ENE,59,0.0,3.0,89,0.00,,---,0.09,VWS V14.01,2013-05-03 23:45:00,
2013-05-03 20:00:00,60.7,57.4,29.99,ENE,74,0.0,2.0,89,0.00,,---,0.09,VWS V14.01,2013-05-04 00:00:00,
2013-05-03 20:15:00,60.4,57.2,29.99,East,82,0.0,3.0,89,0.00,,---,0.09,VWS V14.01,2013-05-04 00:15:00,
2013-05-03 20:30:00,60.5,57.2,29.99,ENE,70,1.0,3.0,89,0.00,,---,0.09,VWS V14.01,2013-05-04 00:30:00,
2013-05-03 20:45:00,60.7,57.1,29.99,East,94,1.0,4.0,88,0.00,,---,0.09,VWS V14.01,2013-05-04 00:45:00,
2013-05-03 21:00:00,60.5,56.9,29.99,ENE,77,0.0,2.0,88,0.00,,---,0.09,VWS V14.01,2013-05-04 01:00:00,
2013-05-03 21:15:00,60.3,57.0,29.99,NE,43,0.0,3.0,89,0.00,,---,0.09,VWS V14.01,2013-05-04 01:15:00,
2013-05-03 21:30:00,60.5,57.2,29.99,ESE,111,1.0,4.0,89,0.00,,---,0.09,VWS V14.01,2013-05-04 01:30:00,
2013-05-03 21:45:00,60.5,57.2,30.00,East,84,1.0,2.0,89,0.00,,---,0.09,VWS V14.01,2013-05-04 01:45:00,
2013-05-03 22:00:00,60.8,57.2,29.99,East,83,2.0,3.0,88,0.00,,---,0.09,VWS V14.01,2013-05-04 02:00:00,
2013-05-03 22:15:00,60.9,57.3,29.99,East,85,0.0,3.0,88,0.00,,---,0.09,VWS V14.01,2013-05-04 02:15:00,
2013-05-03 22:31:00,60.9,57.6,29.99,West,269,0.0,3.0,89,0.00,,---,0.09,VWS V14.01,2013-05-04 02:31:00,
2013-05-03 22:45:00,60.9,57.6,29.99,East,79,1.0,2.0,89,0.00,,---,0.09,VWS V14.01,2013-05-04 02:45:00,
2013-05-03 23:00:00,61.0,57.7,29.98,ENE,70,1.0,4.0,89,0.00,,---,0.09,VWS V14.01,2013-05-04 03:00:00,
2013-05-03 23:15:00,61.1,57.5,29.98,ESE,103,1.0,5.0,88,0.00,,---,0.09,VWS V14.01,2013-05-04 03:15:00,
2013-05-03 23:30:00,61.1,57.5,29.97,ESE,103,2.0,4.0,88,0.00,,---,0.09,VWS V14.01,2013-05-04 03:30:00,
2013-05-03 23:46:00,61.1,57.2,29.98,East,79,1.0,4.0,87,0.00,,---,0.09,VWS V14.01,2013-05-04 03:46:00,